sensor_id;sensor_type;location;lat;lon;timestamp;pressure;altitude;pressure_sealevel;temperature;humidity
23229;BME280;11783;50.350;6.576;2023-07-31T00:01:00;96059.06;;;16.19;99.59
23229;BME280;11783;50.350;6.576;2023-07-31T00:03:25;96045.66;;;16.19;100.00
23229;BME280;11783;50.350;6.576;2023-07-31T00:05:50;96051.63;;;16.11;99.97
23229;BME280;11783;50.350;6.576;2023-07-31T00:08:16;96046.75;;;16.18;99.19
23229;BME280;11783;50.350;6.576;2023-07-31T00:10:41;96048.34;;;16.19;99.76
23229;BME280;11783;50.350;6.576;2023-07-31T00:13:06;96048.06;;;16.20;99.68
23229;BME280;11783;50.350;6.576;2023-07-31T00:15:32;96045.63;;;16.24;99.08
23229;BME280;11783;50.350;6.576;2023-07-31T00:17:57;96041.94;;;16.15;100.00
23229;BME280;11783;50.350;6.576;2023-07-31T00:20:23;96041.13;;;16.14;99.78
23229;BME280;11783;50.350;6.576;2023-07-31T00:22:48;96050.03;;;16.10;99.78
23229;BME280;11783;50.350;6.576;2023-07-31T00:25:13;96041.69;;;16.11;100.00
23229;BME280;11783;50.350;6.576;2023-07-31T00:27:39;96034.50;;;16.07;100.00
23229;BME280;11783;50.350;6.576;2023-07-31T00:30:05;96045.00;;;16.03;100.00
23229;BME280;11783;50.350;6.576;2023-07-31T00:32:30;96050.03;;;16.10;99.67
23229;BME280;11783;50.350;6.576;2023-07-31T00:34:55;96047.63;;;16.08;100.00
23229;BME280;11783;50.350;6.576;2023-07-31T00:37:21;96046.13;;;15.97;100.00
23229;BME280;11783;50.350;6.576;2023-07-31T00:39:46;96041.94;;;15.86;100.00
23229;BME280;11783;50.350;6.576;2023-07-31T00:42:11;96053.06;;;15.98;100.00
23229;BME280;11783;50.350;6.576;2023-07-31T00:44:37;96051.13;;;16.09;99.54
23229;BME280;11783;50.350;6.576;2023-07-31T00:47:02;96046.56;;;16.09;99.56
23229;BME280;11783;50.350;6.576;2023-07-31T00:49:27;96049.44;;;16.18;99.04
23229;BME280;11783;50.350;6.576;2023-07-31T00:51:53;96049.47;;;16.13;99.50
23229;BME280;11783;50.350;6.576;2023-07-31T00:54:19;96044.94;;;16.08;99.27
23229;BME280;11783;50.350;6.576;2023-07-31T00:56:45;96035.25;;;16.12;97.97
23229;BME280;11783;50.350;6.576;2023-07-31T00:59:13;96030.53;;;16.04;99.23
23229;BME280;11783;50.350;6.576;2023-07-31T01:01:39;96044.94;;;16.08;98.28
23229;BME280;11783;50.350;6.576;2023-07-31T01:04:05;96034.47;;;16.12;98.13
23229;BME280;11783;50.350;6.576;2023-07-31T01:06:37;96028.59;;;16.10;98.36
23229;BME280;11783;50.350;6.576;2023-07-31T01:11:41;96017.81;;;16.15;97.72
23229;BME280;11783;50.350;6.576;2023-07-31T01:14:07;96024.59;;;16.07;97.70
23229;BME280;11783;50.350;6.576;2023-07-31T01:16:33;96013.81;;;16.12;97.65
23229;BME280;11783;50.350;6.576;2023-07-31T01:18:58;96013.28;;;16.10;97.96
23229;BME280;11783;50.350;6.576;2023-07-31T01:26:56;96020.78;;;16.13;97.21
23229;BME280;11783;50.350;6.576;2023-07-31T01:29:34;96013.53;;;16.14;97.45
23229;BME280;11783;50.350;6.576;2023-07-31T01:32:04;96025.31;;;16.18;97.58
23229;BME280;11783;50.350;6.576;2023-07-31T01:34:32;96013.28;;;16.10;97.68
23229;BME280;11783;50.350;6.576;2023-07-31T01:36:57;96020.81;;;16.08;98.02
23229;BME280;11783;50.350;6.576;2023-07-31T01:39:23;96015.81;;;16.01;98.70
23229;BME280;11783;50.350;6.576;2023-07-31T01:41:49;96013.88;;;16.07;97.51
23229;BME280;11783;50.350;6.576;2023-07-31T01:44:14;96009.53;;;16.11;97.14
23229;BME280;11783;50.350;6.576;2023-07-31T01:46:39;96009.31;;;16.08;98.08
23229;BME280;11783;50.350;6.576;2023-07-31T01:49:05;96004.16;;;16.11;97.44
23229;BME280;11783;50.350;6.576;2023-07-31T01:51:31;95999.31;;;16.13;97.59
23229;BME280;11783;50.350;6.576;2023-07-31T01:54:02;96004.22;;;16.06;98.57
23229;BME280;11783;50.350;6.576;2023-07-31T01:56:28;95994.25;;;16.12;98.21
23229;BME280;11783;50.350;6.576;2023-07-31T01:58:53;95992.06;;;16.14;98.67
23229;BME280;11783;50.350;6.576;2023-07-31T02:01:19;95991.06;;;16.10;98.45
23229;BME280;11783;50.350;6.576;2023-07-31T02:03:44;95987.22;;;16.16;97.98
23229;BME280;11783;50.350;6.576;2023-07-31T02:06:09;95988.03;;;16.16;98.17
23229;BME280;11783;50.350;6.576;2023-07-31T02:08:35;95988.03;;;16.16;98.52
23229;BME280;11783;50.350;6.576;2023-07-31T02:11:00;95984.31;;;16.12;98.31
23229;BME280;11783;50.350;6.576;2023-07-31T02:13:25;95981.03;;;16.20;98.68
23229;BME280;11783;50.350;6.576;2023-07-31T02:15:51;95989.03;;;16.25;98.59
23229;BME280;11783;50.350;6.576;2023-07-31T02:18:16;95977.59;;;16.15;99.51
23229;BME280;11783;50.350;6.576;2023-07-31T02:20:42;95981.69;;;16.07;100.00
23229;BME280;11783;50.350;6.576;2023-07-31T02:23:07;95984.66;;;16.05;100.00
23229;BME280;11783;50.350;6.576;2023-07-31T02:25:32;95973.66;;;16.07;100.00
23229;BME280;11783;50.350;6.576;2023-07-31T02:27:58;95973.75;;;15.97;100.00
23229;BME280;11783;50.350;6.576;2023-07-31T02:30:23;95973.16;;;16.05;100.00
23229;BME280;11783;50.350;6.576;2023-07-31T02:32:49;95975.88;;;16.00;100.00
23229;BME280;11783;50.350;6.576;2023-07-31T02:35:14;95975.09;;;15.99;100.00
23229;BME280;11783;50.350;6.576;2023-07-31T02:37:41;95977.50;;;15.96;100.00
23229;BME280;11783;50.350;6.576;2023-07-31T02:40:07;95969.97;;;15.98;100.00
23229;BME280;11783;50.350;6.576;2023-07-31T02:42:32;95969.09;;;16.08;100.00
23229;BME280;11783;50.350;6.576;2023-07-31T02:44:58;95962.94;;;16.07;100.00
23229;BME280;11783;50.350;6.576;2023-07-31T02:47:23;95966.13;;;16.09;100.00
23229;BME280;11783;50.350;6.576;2023-07-31T02:49:49;95962.28;;;16.15;100.00
23229;BME280;11783;50.350;6.576;2023-07-31T02:52:14;95959.88;;;16.19;100.00
23229;BME280;11783;50.350;6.576;2023-07-31T02:54:39;95958.53;;;16.16;100.00
23229;BME280;11783;50.350;6.576;2023-07-31T02:57:05;95961.41;;;16.25;100.00
23229;BME280;11783;50.350;6.576;2023-07-31T02:59:31;95952.31;;;15.97;100.00
23229;BME280;11783;50.350;6.576;2023-07-31T03:01:56;95950.47;;;15.92;100.00
23229;BME280;11783;50.350;6.576;2023-07-31T03:04:21;95947.41;;;16.04;100.00
23229;BME280;11783;50.350;6.576;2023-07-31T03:06:47;95947.88;;;16.11;100.00
23229;BME280;11783;50.350;6.576;2023-07-31T03:09:12;95951.34;;;16.12;100.00
23229;BME280;11783;50.350;6.576;2023-07-31T03:11:37;95939.09;;;16.05;100.00
23229;BME280;11783;50.350;6.576;2023-07-31T03:14:03;95943.81;;;16.14;100.00
23229;BME280;11783;50.350;6.576;2023-07-31T03:16:28;95937.38;;;16.15;100.00
23229;BME280;11783;50.350;6.576;2023-07-31T03:18:54;95935.19;;;16.17;100.00
23229;BME280;11783;50.350;6.576;2023-07-31T03:21:19;95942.56;;;16.06;100.00
23229;BME280;11783;50.350;6.576;2023-07-31T03:23:44;95930.69;;;16.12;100.00
23229;BME280;11783;50.350;6.576;2023-07-31T03:26:10;95931.06;;;16.05;100.00
23229;BME280;11783;50.350;6.576;2023-07-31T03:28:35;95919.97;;;16.12;100.00
23229;BME280;11783;50.350;6.576;2023-07-31T03:31:01;95922.34;;;16.19;100.00
23229;BME280;11783;50.350;6.576;2023-07-31T03:33:26;95917.47;;;16.21;100.00
23229;BME280;11783;50.350;6.576;2023-07-31T03:35:52;95920.19;;;16.16;100.00
23229;BME280;11783;50.350;6.576;2023-07-31T03:38:17;95921.06;;;16.11;100.00
23229;BME280;11783;50.350;6.576;2023-07-31T03:40:43;95908.81;;;16.05;100.00
23229;BME280;11783;50.350;6.576;2023-07-31T03:43:08;95923.81;;;16.06;100.00
23229;BME280;11783;50.350;6.576;2023-07-31T03:45:34;95907.22;;;16.04;100.00
23229;BME280;11783;50.350;6.576;2023-07-31T03:47:59;95905.19;;;16.15;100.00
23229;BME280;11783;50.350;6.576;2023-07-31T03:50:24;95909.31;;;16.07;100.00
23229;BME280;11783;50.350;6.576;2023-07-31T03:52:50;95913.75;;;15.93;100.00
23229;BME280;11783;50.350;6.576;2023-07-31T03:55:15;95897.06;;;16.01;100.00
23229;BME280;11783;50.350;6.576;2023-07-31T03:57:41;95897.00;;;16.06;100.00
23229;BME280;11783;50.350;6.576;2023-07-31T04:00:07;95898.16;;;16.00;100.00
23229;BME280;11783;50.350;6.576;2023-07-31T04:02:32;95896.50;;;16.04;100.00
23229;BME280;11783;50.350;6.576;2023-07-31T04:04:58;95894.09;;;16.02;100.00
23229;BME280;11783;50.350;6.576;2023-07-31T04:07:23;95890.78;;;16.11;100.00
23229;BME280;11783;50.350;6.576;2023-07-31T04:09:48;95890.50;;;16.12;100.00
23229;BME280;11783;50.350;6.576;2023-07-31T04:12:14;95891.13;;;16.04;100.00
23229;BME280;11783;50.350;6.576;2023-07-31T04:14:39;95900.13;;;15.89;100.00
23229;BME280;11783;50.350;6.576;2023-07-31T04:17:05;95897.09;;;15.96;100.00
23229;BME280;11783;50.350;6.576;2023-07-31T04:19:30;95899.34;;;15.89;100.00
23229;BME280;11783;50.350;6.576;2023-07-31T04:21:55;95899.63;;;15.87;100.00
23229;BME280;11783;50.350;6.576;2023-07-31T04:24:21;95891.09;;;15.80;100.00
23229;BME280;11783;50.350;6.576;2023-07-31T04:26:53;95876.88;;;15.85;100.00
23229;BME280;11783;50.350;6.576;2023-07-31T04:29:19;95890.50;;;15.88;100.00
23229;BME280;11783;50.350;6.576;2023-07-31T04:31:44;95895.41;;;15.81;100.00
23229;BME280;11783;50.350;6.576;2023-07-31T04:34:10;95891.34;;;15.84;100.00
23229;BME280;11783;50.350;6.576;2023-07-31T04:36:36;95885.13;;;15.88;100.00
23229;BME280;11783;50.350;6.576;2023-07-31T04:39:02;95891.59;;;15.87;100.00
23229;BME280;11783;50.350;6.576;2023-07-31T04:41:27;95891.81;;;15.91;100.00
23229;BME280;11783;50.350;6.576;2023-07-31T04:43:53;95884.41;;;15.83;100.00
23229;BME280;11783;50.350;6.576;2023-07-31T04:46:18;95881.66;;;15.88;100.00
23229;BME280;11783;50.350;6.576;2023-07-31T04:48:44;95878.91;;;15.93;100.00
23229;BME280;11783;50.350;6.576;2023-07-31T04:51:09;95883.19;;;15.94;100.00
23229;BME280;11783;50.350;6.576;2023-07-31T04:53:35;95875.16;;;15.94;100.00
23229;BME280;11783;50.350;6.576;2023-07-31T04:56:00;95867.88;;;15.99;100.00
23229;BME280;11783;50.350;6.576;2023-07-31T04:58:26;95868.13;;;15.98;100.00
23229;BME280;11783;50.350;6.576;2023-07-31T05:00:51;95863.84;;;15.97;100.00
23229;BME280;11783;50.350;6.576;2023-07-31T05:03:16;95866.25;;;15.98;100.00
23229;BME280;11783;50.350;6.576;2023-07-31T05:05:42;95872.38;;;16.04;100.00
23229;BME280;11783;50.350;6.576;2023-07-31T05:08:07;95867.59;;;16.01;100.00
23229;BME280;11783;50.350;6.576;2023-07-31T05:10:33;95875.63;;;16.01;100.00
23229;BME280;11783;50.350;6.576;2023-07-31T05:12:58;95858.22;;;15.98;100.00
23229;BME280;11783;50.350;6.576;2023-07-31T05:15:23;95860.09;;;15.98;100.00
23229;BME280;11783;50.350;6.576;2023-07-31T05:17:49;95854.00;;;15.92;100.00
23229;BME280;11783;50.350;6.576;2023-07-31T05:20:14;95855.28;;;16.00;100.00
23229;BME280;11783;50.350;6.576;2023-07-31T05:22:40;95856.38;;;15.94;100.00
23229;BME280;11783;50.350;6.576;2023-07-31T05:25:07;95844.06;;;15.93;100.00
23229;BME280;11783;50.350;6.576;2023-07-31T05:27:32;95851.25;;;15.97;100.00
23229;BME280;11783;50.350;6.576;2023-07-31T05:29:58;95839.13;;;16.05;100.00
23229;BME280;11783;50.350;6.576;2023-07-31T05:32:23;95843.69;;;16.04;100.00
23229;BME280;11783;50.350;6.576;2023-07-31T05:34:51;95838.31;;;16.04;100.00
23229;BME280;11783;50.350;6.576;2023-07-31T05:37:17;95841.00;;;16.04;100.00
23229;BME280;11783;50.350;6.576;2023-07-31T05:39:42;95846.47;;;15.94;100.00
23229;BME280;11783;50.350;6.576;2023-07-31T05:42:08;95854.28;;;15.91;100.00
23229;BME280;11783;50.350;6.576;2023-07-31T05:44:33;95842.84;;;15.85;100.00
23229;BME280;11783;50.350;6.576;2023-07-31T05:46:59;95840.44;;;15.84;100.00
23229;BME280;11783;50.350;6.576;2023-07-31T05:49:24;95837.75;;;15.84;100.00
23229;BME280;11783;50.350;6.576;2023-07-31T05:51:49;95830.91;;;15.96;100.00
23229;BME280;11783;50.350;6.576;2023-07-31T05:54:15;95828.06;;;15.88;100.00
23229;BME280;11783;50.350;6.576;2023-07-31T05:56:40;95826.63;;;15.95;100.00
23229;BME280;11783;50.350;6.576;2023-07-31T05:59:05;95825.81;;;15.95;100.00
23229;BME280;11783;50.350;6.576;2023-07-31T06:01:31;95838.72;;;15.93;100.00
23229;BME280;11783;50.350;6.576;2023-07-31T06:03:56;95835.53;;;15.91;100.00
23229;BME280;11783;50.350;6.576;2023-07-31T06:06:21;95840.50;;;16.02;100.00
23229;BME280;11783;50.350;6.576;2023-07-31T06:08:47;95845.56;;;16.04;100.00
23229;BME280;11783;50.350;6.576;2023-07-31T06:11:12;95831.16;;;16.00;100.00
23229;BME280;11783;50.350;6.576;2023-07-31T06:13:37;95825.03;;;15.94;100.00
23229;BME280;11783;50.350;6.576;2023-07-31T06:16:03;95830.22;;;15.86;100.00
23229;BME280;11783;50.350;6.576;2023-07-31T06:18:32;95825.66;;;15.86;100.00
23229;BME280;11783;50.350;6.576;2023-07-31T06:20:57;95835.75;;;15.94;100.00
23229;BME280;11783;50.350;6.576;2023-07-31T06:23:22;95839.00;;;15.91;100.00
23229;BME280;11783;50.350;6.576;2023-07-31T06:25:48;95830.34;;;15.99;100.00
23229;BME280;11783;50.350;6.576;2023-07-31T06:28:13;95820.94;;;16.02;100.00
23229;BME280;11783;50.350;6.576;2023-07-31T06:30:39;95812.94;;;15.97;100.00
23229;BME280;11783;50.350;6.576;2023-07-31T06:33:04;95817.22;;;15.98;100.00
23229;BME280;11783;50.350;6.576;2023-07-31T06:35:30;95824.75;;;15.96;100.00
23229;BME280;11783;50.350;6.576;2023-07-31T06:37:55;95827.03;;;16.08;100.00
23229;BME280;11783;50.350;6.576;2023-07-31T06:40:21;95833.28;;;15.98;100.00
23229;BME280;11783;50.350;6.576;2023-07-31T06:42:47;95827.59;;;16.04;100.00
23229;BME280;11783;50.350;6.576;2023-07-31T06:45:12;95822.09;;;16.15;100.00
23229;BME280;11783;50.350;6.576;2023-07-31T06:47:37;95812.97;;;16.16;100.00
23229;BME280;11783;50.350;6.576;2023-07-31T06:50:03;95817.78;;;16.19;100.00
23229;BME280;11783;50.350;6.576;2023-07-31T06:52:29;95813.06;;;16.29;100.00
23229;BME280;11783;50.350;6.576;2023-07-31T06:55:23;95812.44;;;16.38;100.00
23229;BME280;11783;50.350;6.576;2023-07-31T06:57:48;95820.91;;;16.45;100.00
23229;BME280;11783;50.350;6.576;2023-07-31T07:00:15;95827.28;;;16.49;100.00
23229;BME280;11783;50.350;6.576;2023-07-31T07:02:40;95821.91;;;16.49;100.00
23229;BME280;11783;50.350;6.576;2023-07-31T07:05:06;95806.81;;;16.53;100.00
23229;BME280;11783;50.350;6.576;2023-07-31T07:07:32;95804.81;;;16.45;100.00
23229;BME280;11783;50.350;6.576;2023-07-31T07:09:58;95800.16;;;16.50;100.00
23229;BME280;11783;50.350;6.576;2023-07-31T07:12:25;95794.16;;;16.58;100.00
23229;BME280;11783;50.350;6.576;2023-07-31T07:14:50;95805.72;;;16.54;100.00
23229;BME280;11783;50.350;6.576;2023-07-31T07:17:18;95810.38;;;16.48;100.00
23229;BME280;11783;50.350;6.576;2023-07-31T07:19:43;95799.94;;;16.47;100.00
23229;BME280;11783;50.350;6.576;2023-07-31T07:22:09;95799.16;;;16.46;100.00
23229;BME280;11783;50.350;6.576;2023-07-31T07:24:35;95792.69;;;16.47;100.00
23229;BME280;11783;50.350;6.576;2023-07-31T07:27:00;95802.34;;;16.48;100.00
23229;BME280;11783;50.350;6.576;2023-07-31T07:29:26;95802.34;;;16.48;100.00
23229;BME280;11783;50.350;6.576;2023-07-31T07:31:51;95793.13;;;16.54;100.00
23229;BME280;11783;50.350;6.576;2023-07-31T07:34:17;95800.31;;;16.59;100.00
23229;BME280;11783;50.350;6.576;2023-07-31T07:36:42;95789.13;;;16.52;100.00
23229;BME280;11783;50.350;6.576;2023-07-31T07:39:09;95787.69;;;16.59;100.00
23229;BME280;11783;50.350;6.576;2023-07-31T07:41:35;95791.38;;;16.63;100.00
23229;BME280;11783;50.350;6.576;2023-07-31T07:44:00;95799.38;;;16.69;100.00
23229;BME280;11783;50.350;6.576;2023-07-31T07:46:25;95816.47;;;16.73;100.00
23229;BME280;11783;50.350;6.576;2023-07-31T07:48:50;95805.88;;;16.62;100.00
23229;BME280;11783;50.350;6.576;2023-07-31T07:51:16;95791.00;;;16.51;100.00
23229;BME280;11783;50.350;6.576;2023-07-31T07:53:41;95791.53;;;16.53;100.00
23229;BME280;11783;50.350;6.576;2023-07-31T07:56:07;95792.75;;;16.61;100.00
23229;BME280;11783;50.350;6.576;2023-07-31T07:58:32;95776.47;;;16.57;100.00
23229;BME280;11783;50.350;6.576;2023-07-31T08:00:57;95772.59;;;16.63;100.00
23229;BME280;11783;50.350;6.576;2023-07-31T08:03:23;95768.97;;;16.73;100.00
23229;BME280;11783;50.350;6.576;2023-07-31T08:05:48;95772.69;;;16.77;100.00
23229;BME280;11783;50.350;6.576;2023-07-31T08:08:15;95778.56;;;16.79;100.00
23229;BME280;11783;50.350;6.576;2023-07-31T08:10:41;95761.66;;;16.79;100.00
23229;BME280;11783;50.350;6.576;2023-07-31T08:13:07;95764.47;;;16.87;100.00
23229;BME280;11783;50.350;6.576;2023-07-31T08:15:32;95770.72;;;16.83;100.00
23229;BME280;11783;50.350;6.576;2023-07-31T08:17:57;95763.53;;;16.78;100.00
23229;BME280;11783;50.350;6.576;2023-07-31T08:20:23;95764.47;;;16.87;100.00
23229;BME280;11783;50.350;6.576;2023-07-31T08:22:48;95777.84;;;16.74;100.00
23229;BME280;11783;50.350;6.576;2023-07-31T08:25:14;95782.53;;;16.82;100.00
23229;BME280;11783;50.350;6.576;2023-07-31T08:27:43;95777.09;;;16.87;100.00
23229;BME280;11783;50.350;6.576;2023-07-31T08:30:08;95773.41;;;16.83;100.00
23229;BME280;11783;50.350;6.576;2023-07-31T08:32:34;95773.59;;;16.86;100.00
23229;BME280;11783;50.350;6.576;2023-07-31T08:34:59;95776.72;;;16.93;100.00
23229;BME280;11783;50.350;6.576;2023-07-31T08:37:25;95773.44;;;16.97;100.00
23229;BME280;11783;50.350;6.576;2023-07-31T08:39:50;95783.19;;;16.92;99.74
23229;BME280;11783;50.350;6.576;2023-07-31T08:42:16;95774.75;;;16.99;100.00
23229;BME280;11783;50.350;6.576;2023-07-31T08:44:43;95770.06;;;17.05;100.00
23229;BME280;11783;50.350;6.576;2023-07-31T08:47:09;95767.09;;;17.06;97.76
23229;BME280;11783;50.350;6.576;2023-07-31T08:49:37;95766.94;;;17.16;97.85
23229;BME280;11783;50.350;6.576;2023-07-31T08:52:03;95775.97;;;17.20;97.84
23229;BME280;11783;50.350;6.576;2023-07-31T08:54:29;95786.69;;;17.07;97.64
23229;BME280;11783;50.350;6.576;2023-07-31T08:56:56;95774.34;;;17.06;95.61
23229;BME280;11783;50.350;6.576;2023-07-31T08:59:23;95774.47;;;17.14;96.12
23229;BME280;11783;50.350;6.576;2023-07-31T09:01:50;95785.94;;;17.20;95.40
23229;BME280;11783;50.350;6.576;2023-07-31T09:04:19;95783.63;;;17.13;94.60
23229;BME280;11783;50.350;6.576;2023-07-31T09:06:47;95779.75;;;17.19;96.38
23229;BME280;11783;50.350;6.576;2023-07-31T09:09:13;95772.09;;;17.26;96.75
23229;BME280;11783;50.350;6.576;2023-07-31T09:11:39;95765.75;;;17.36;95.85
23229;BME280;11783;50.350;6.576;2023-07-31T09:14:05;95772.63;;;17.42;95.57
23229;BME280;11783;50.350;6.576;2023-07-31T09:16:34;95781.69;;;17.46;93.87
23229;BME280;11783;50.350;6.576;2023-07-31T09:18:59;95777.19;;;17.42;94.29
23229;BME280;11783;50.350;6.576;2023-07-31T09:21:27;95765.56;;;17.33;93.17
23229;BME280;11783;50.350;6.576;2023-07-31T09:23:53;95767.75;;;17.31;91.98
23229;BME280;11783;50.350;6.576;2023-07-31T09:26:33;95772.09;;;17.26;92.05
23229;BME280;11783;50.350;6.576;2023-07-31T09:29:00;95757.38;;;17.24;91.96
23229;BME280;11783;50.350;6.576;2023-07-31T09:31:52;95757.59;;;17.41;92.14
23229;BME280;11783;50.350;6.576;2023-07-31T09:34:19;95746.69;;;17.51;90.78
23229;BME280;11783;50.350;6.576;2023-07-31T09:36:49;95747.56;;;17.61;91.90
23229;BME280;11783;50.350;6.576;2023-07-31T09:39:15;95759.00;;;17.66;91.12
23229;BME280;11783;50.350;6.576;2023-07-31T09:41:47;95742.31;;;17.69;89.16
23229;BME280;11783;50.350;6.576;2023-07-31T09:44:13;95736.22;;;17.77;87.99
23229;BME280;11783;50.350;6.576;2023-07-31T09:46:38;95741.53;;;17.69;90.44
23229;BME280;11783;50.350;6.576;2023-07-31T09:49:12;95750.38;;;17.69;88.43
23229;BME280;11783;50.350;6.576;2023-07-31T09:51:39;95747.75;;;17.64;86.92
23229;BME280;11783;50.350;6.576;2023-07-31T09:54:17;95742.50;;;17.73;88.06
23229;BME280;11783;50.350;6.576;2023-07-31T09:56:47;95762.28;;;17.63;88.46
23229;BME280;11783;50.350;6.576;2023-07-31T09:59:18;95762.19;;;17.54;88.41
23229;BME280;11783;50.350;6.576;2023-07-31T10:01:45;95751.75;;;17.53;87.52
23229;BME280;11783;50.350;6.576;2023-07-31T10:04:12;95752.06;;;17.51;87.28
23229;BME280;11783;50.350;6.576;2023-07-31T10:06:38;95753.84;;;17.56;88.16
23229;BME280;11783;50.350;6.576;2023-07-31T10:09:09;95754.44;;;17.53;89.81
23229;BME280;11783;50.350;6.576;2023-07-31T10:11:50;95753.63;;;17.39;86.72
23229;BME280;11783;50.350;6.576;2023-07-31T10:14:21;95765.00;;;17.49;87.24
23229;BME280;11783;50.350;6.576;2023-07-31T10:16:49;95743.19;;;17.51;88.47
23229;BME280;11783;50.350;6.576;2023-07-31T10:19:16;95756.94;;;17.49;88.71
23229;BME280;11783;50.350;6.576;2023-07-31T10:21:42;95756.03;;;17.54;89.15
23229;BME280;11783;50.350;6.576;2023-07-31T10:24:08;95740.41;;;17.56;89.65
23229;BME280;11783;50.350;6.576;2023-07-31T10:26:35;95747.69;;;17.69;90.74
23229;BME280;11783;50.350;6.576;2023-07-31T10:29:00;95737.34;;;17.76;91.59
23229;BME280;11783;50.350;6.576;2023-07-31T10:31:27;95739.41;;;17.79;90.80
23229;BME280;11783;50.350;6.576;2023-07-31T10:33:54;95746.28;;;17.85;89.75
23229;BME280;11783;50.350;6.576;2023-07-31T10:36:20;95733.34;;;17.88;88.67
23229;BME280;11783;50.350;6.576;2023-07-31T10:38:49;95748.75;;;17.96;89.03
23229;BME280;11783;50.350;6.576;2023-07-31T10:41:16;95748.34;;;18.02;90.11
23229;BME280;11783;50.350;6.576;2023-07-31T10:43:41;95762.78;;;18.06;92.77
23229;BME280;11783;50.350;6.576;2023-07-31T10:46:07;95772.47;;;17.94;95.23
23229;BME280;11783;50.350;6.576;2023-07-31T10:48:35;95772.53;;;18.02;96.03
23229;BME280;11783;50.350;6.576;2023-07-31T10:51:07;95766.66;;;18.00;96.68
23229;BME280;11783;50.350;6.576;2023-07-31T10:53:33;95773.75;;;17.96;99.74
23229;BME280;11783;50.350;6.576;2023-07-31T10:56:08;95772.75;;;17.92;99.55
23229;BME280;11783;50.350;6.576;2023-07-31T10:58:36;95762.09;;;18.01;99.61
23229;BME280;11783;50.350;6.576;2023-07-31T11:01:05;95767.69;;;18.04;100.00
23229;BME280;11783;50.350;6.576;2023-07-31T11:06:09;95763.78;;;17.83;100.00
23229;BME280;11783;50.350;6.576;2023-07-31T11:08:41;95754.56;;;17.75;100.00
23229;BME280;11783;50.350;6.576;2023-07-31T11:11:09;95746.28;;;17.85;100.00
23229;BME280;11783;50.350;6.576;2023-07-31T11:13:49;95734.34;;;17.92;100.00
23229;BME280;11783;50.350;6.576;2023-07-31T11:16:16;95739.53;;;17.88;100.00
23229;BME280;11783;50.350;6.576;2023-07-31T11:18:45;95734.81;;;17.94;100.00
23229;BME280;11783;50.350;6.576;2023-07-31T11:21:15;95740.28;;;18.02;100.00
23229;BME280;11783;50.350;6.576;2023-07-31T11:23:41;95725.50;;;18.13;100.00
23229;BME280;11783;50.350;6.576;2023-07-31T11:26:10;95728.66;;;18.29;100.00
23229;BME280;11783;50.350;6.576;2023-07-31T11:28:35;95717.25;;;18.46;98.28
23229;BME280;11783;50.350;6.576;2023-07-31T11:31:02;95722.50;;;18.51;100.00
23229;BME280;11783;50.350;6.576;2023-07-31T11:33:27;95714.19;;;18.61;99.91
23229;BME280;11783;50.350;6.576;2023-07-31T11:35:53;95722.66;;;18.68;97.98
23229;BME280;11783;50.350;6.576;2023-07-31T11:38:26;95715.81;;;18.85;98.50
23229;BME280;11783;50.350;6.576;2023-07-31T11:40:57;95705.13;;;19.02;99.98
23229;BME280;11783;50.350;6.576;2023-07-31T11:43:23;95699.66;;;19.16;100.00
23229;BME280;11783;50.350;6.576;2023-07-31T11:45:50;95693.84;;;19.31;96.32
23229;BME280;11783;50.350;6.576;2023-07-31T11:48:20;95693.25;;;19.34;94.13
23229;BME280;11783;50.350;6.576;2023-07-31T11:50:46;95695.09;;;19.33;92.49
23229;BME280;11783;50.350;6.576;2023-07-31T11:53:12;95691.81;;;19.36;93.00
23229;BME280;11783;50.350;6.576;2023-07-31T11:55:38;95708.81;;;19.15;90.45
23229;BME280;11783;50.350;6.576;2023-07-31T11:58:04;95712.84;;;19.26;91.01
23229;BME280;11783;50.350;6.576;2023-07-31T12:00:30;95710.31;;;19.29;90.05
23229;BME280;11783;50.350;6.576;2023-07-31T12:02:56;95725.69;;;19.29;89.70
23229;BME280;11783;50.350;6.576;2023-07-31T12:05:22;95738.97;;;19.17;88.68
23229;BME280;11783;50.350;6.576;2023-07-31T12:07:53;95716.63;;;19.16;89.25
23229;BME280;11783;50.350;6.576;2023-07-31T12:10:27;95702.84;;;18.95;89.96
23229;BME280;11783;50.350;6.576;2023-07-31T12:13:08;95699.19;;;18.91;90.91
23229;BME280;11783;50.350;6.576;2023-07-31T12:15:42;95719.31;;;18.94;90.74
23229;BME280;11783;50.350;6.576;2023-07-31T12:18:14;95717.03;;;18.79;91.16
23229;BME280;11783;50.350;6.576;2023-07-31T12:20:44;95717.63;;;18.75;90.81
23229;BME280;11783;50.350;6.576;2023-07-31T12:23:14;95712.31;;;18.62;91.49
23229;BME280;11783;50.350;6.576;2023-07-31T12:25:40;95726.78;;;18.52;92.20
23229;BME280;11783;50.350;6.576;2023-07-31T12:28:07;95727.13;;;18.37;91.82
23229;BME280;11783;50.350;6.576;2023-07-31T12:30:37;95722.25;;;18.39;91.89
23229;BME280;11783;50.350;6.576;2023-07-31T12:33:06;95726.75;;;18.07;93.38
23229;BME280;11783;50.350;6.576;2023-07-31T12:35:37;95716.78;;;18.08;94.10
23229;BME280;11783;50.350;6.576;2023-07-31T12:38:02;95717.94;;;18.15;93.67
23229;BME280;11783;50.350;6.576;2023-07-31T12:40:28;95711.94;;;18.19;93.15
23229;BME280;11783;50.350;6.576;2023-07-31T12:42:53;95707.84;;;18.21;93.60
23229;BME280;11783;50.350;6.576;2023-07-31T12:45:18;95699.22;;;18.10;93.54
23229;BME280;11783;50.350;6.576;2023-07-31T12:47:44;95695.66;;;18.01;94.07
23229;BME280;11783;50.350;6.576;2023-07-31T12:50:09;95673.28;;;17.92;94.43
23229;BME280;11783;50.350;6.576;2023-07-31T12:52:35;95699.44;;;18.00;95.42
23229;BME280;11783;50.350;6.576;2023-07-31T12:55:00;95696.28;;;17.84;95.06
23229;BME280;11783;50.350;6.576;2023-07-31T12:57:25;95686.56;;;17.89;95.69
23229;BME280;11783;50.350;6.576;2023-07-31T12:59:51;95706.56;;;17.82;95.86
23229;BME280;11783;50.350;6.576;2023-07-31T13:02:16;95701.19;;;17.82;96.12